createdAt,value
2019-03-01T00:00:35.347Z,44.47
2019-03-01T00:03:09.097Z,44.51
2019-03-01T00:05:41.251Z,44.51
2019-03-01T00:08:13.379Z,44.51
2019-03-01T00:10:45.516Z,44.53
2019-03-01T00:13:19.494Z,44.56
2019-03-01T00:15:51.623Z,44.55
2019-03-01T00:18:23.767Z,44.58
2019-03-01T00:20:55.904Z,44.61
2019-03-01T00:23:28.033Z,44.60
2019-03-01T00:26:00.187Z,44.63
2019-03-01T00:28:32.319Z,44.66
2019-03-01T00:31:04.454Z,44.67
2019-03-01T00:33:36.596Z,44.67
2019-03-01T00:36:08.727Z,44.68
2019-03-01T00:38:40.859Z,44.67
2019-03-01T00:41:12.999Z,44.72
2019-03-01T00:43:45.129Z,44.73
2019-03-01T00:46:17.284Z,44.73
2019-03-01T00:48:49.412Z,44.75
2019-03-01T00:51:22.710Z,44.75
2019-03-01T00:53:54.846Z,44.77
2019-03-01T00:56:26.975Z,44.79
2019-03-01T00:58:59.114Z,44.79
2019-03-01T01:01:31.250Z,44.81
2019-03-01T01:04:03.382Z,44.83
2019-03-01T01:06:35.842Z,44.84
2019-03-01T01:09:07.999Z,44.86
2019-03-01T01:11:40.306Z,44.88
2019-03-01T01:14:12.441Z,44.88
2019-03-01T01:16:44.590Z,44.90
2019-03-01T01:19:16.725Z,44.91
2019-03-01T01:21:48.851Z,44.92
2019-03-01T01:24:21.005Z,44.95
2019-03-01T01:26:53.129Z,44.96
2019-03-01T01:29:25.280Z,44.97
2019-03-01T01:31:57.407Z,44.97
2019-03-01T01:34:29.530Z,44.98
2019-03-01T01:37:01.952Z,45.01
2019-03-01T01:39:34.077Z,45.01
2019-03-01T01:42:06.223Z,45.03
2019-03-01T01:44:38.358Z,45.04
2019-03-01T01:47:10.480Z,45.06
2019-03-01T01:49:42.632Z,45.07
2019-03-01T01:52:14.762Z,45.08
2019-03-01T01:54:46.904Z,45.10
2019-03-01T01:57:19.051Z,45.11
2019-03-01T01:59:51.178Z,45.13
2019-03-01T02:02:23.322Z,45.11
2019-03-01T02:04:55.476Z,45.13
2019-03-01T02:07:27.610Z,45.13
2019-03-01T02:09:59.747Z,45.13
2019-03-01T02:12:31.902Z,45.18
2019-03-01T02:15:04.039Z,45.20
2019-03-01T02:17:37.765Z,45.21
2019-03-01T02:20:09.891Z,45.22
2019-03-01T02:22:42.095Z,45.25
2019-03-01T02:25:14.249Z,45.27
2019-03-01T02:27:46.374Z,45.26
2019-03-01T02:30:18.536Z,45.29
2019-03-01T02:32:50.663Z,45.32
2019-03-01T02:35:22.772Z,45.34
2019-03-01T02:37:54.925Z,45.36
2019-03-01T02:40:27.063Z,45.37
2019-03-01T02:42:59.238Z,45.39
2019-03-01T02:45:31.355Z,45.41
2019-03-01T02:48:03.496Z,45.42
2019-03-01T02:50:35.642Z,45.45
2019-03-01T02:53:07.776Z,45.44
2019-03-01T02:55:39.901Z,45.48
2019-03-01T02:58:12.050Z,45.49
2019-03-01T03:00:44.185Z,45.50
2019-03-01T03:03:16.636Z,45.55
2019-03-01T03:05:48.801Z,45.53
2019-03-01T03:08:20.934Z,45.57
2019-03-01T03:10:53.075Z,45.62
2019-03-01T03:13:25.251Z,45.63
2019-03-01T03:15:57.393Z,45.59
2019-03-01T03:18:29.521Z,45.65
2019-03-01T03:21:01.692Z,45.61
2019-03-01T03:23:33.842Z,45.64
2019-03-01T03:26:05.952Z,45.69
2019-03-01T03:28:38.107Z,45.72
2019-03-01T03:31:10.245Z,45.74
2019-03-01T03:33:42.382Z,45.77
2019-03-01T03:36:14.806Z,45.82
2019-03-01T03:38:46.933Z,45.85
2019-03-01T03:41:19.082Z,45.86
2019-03-01T03:43:51.235Z,45.87
2019-03-01T03:46:23.374Z,45.87
2019-03-01T03:48:55.504Z,45.89
2019-03-01T03:51:27.656Z,45.93
2019-03-01T03:53:59.787Z,45.97
2019-03-01T03:56:31.925Z,45.95
2019-03-01T03:59:04.076Z,45.97
2019-03-01T04:01:36.253Z,45.97
2019-03-01T04:04:08.349Z,45.97
2019-03-01T04:06:40.496Z,46.01
2019-03-01T04:09:12.628Z,46.00
2019-03-01T04:11:44.767Z,46.04
2019-03-01T04:14:16.929Z,46.08
2019-03-01T04:16:49.058Z,46.05
2019-03-01T04:19:21.214Z,46.08
2019-03-01T04:21:53.338Z,46.11
2019-03-01T04:24:25.536Z,46.10
2019-03-01T04:26:57.637Z,46.13
2019-03-01T04:29:29.771Z,46.16
2019-03-01T04:32:01.904Z,46.15
2019-03-01T04:34:34.058Z,46.11
2019-03-01T04:37:06.197Z,46.15
2019-03-01T04:39:38.329Z,46.19
2019-03-01T04:42:10.497Z,46.18
2019-03-01T04:44:42.900Z,46.23
2019-03-01T04:47:15.032Z,46.20
2019-03-01T04:49:47.184Z,46.23
2019-03-01T04:52:19.327Z,46.28
2019-03-01T04:54:51.464Z,46.33
2019-03-01T04:57:23.616Z,46.33
2019-03-01T04:59:55.757Z,46.33
2019-03-01T05:02:27.885Z,46.34
2019-03-01T05:05:00.031Z,46.35
2019-03-01T05:07:32.158Z,46.37
2019-03-01T05:10:04.290Z,46.34
2019-03-01T05:12:36.435Z,46.40
2019-03-01T05:15:08.585Z,46.36
2019-03-01T05:17:40.700Z,46.44
2019-03-01T05:20:12.848Z,46.42
2019-03-01T05:22:44.986Z,46.39
2019-03-01T05:25:17.137Z,46.39
2019-03-01T05:27:50.337Z,46.43
2019-03-01T05:30:22.478Z,46.42
2019-03-01T05:32:54.647Z,46.46
2019-03-01T05:35:26.756Z,46.46
2019-03-01T05:37:58.899Z,46.55
2019-03-01T05:40:31.030Z,46.71
2019-03-01T05:43:03.174Z,46.54
2019-03-01T05:45:35.312Z,46.32
2019-03-01T05:48:07.445Z,46.10
2019-03-01T05:50:39.579Z,45.82
2019-03-01T05:53:11.744Z,45.46
2019-03-01T05:55:43.861Z,45.14
2019-03-01T05:58:16.679Z,44.85
2019-03-01T06:00:49.019Z,44.61
2019-03-01T06:03:21.146Z,44.34
2019-03-01T06:05:53.285Z,44.20
2019-03-01T06:08:25.446Z,44.09
2019-03-01T06:10:57.605Z,43.90
2019-03-01T06:13:29.754Z,43.80
2019-03-01T06:16:01.892Z,43.68
2019-03-01T06:18:34.026Z,43.63
2019-03-01T06:21:06.173Z,43.50
2019-03-01T06:23:38.316Z,43.42
2019-03-01T06:26:10.445Z,43.26
2019-03-01T06:28:42.584Z,43.19
2019-03-01T06:31:14.721Z,43.12
2019-03-01T06:33:47.847Z,42.91
2019-03-01T06:36:19.971Z,42.74
2019-03-01T06:38:52.099Z,42.67
2019-03-01T06:41:24.249Z,42.55
2019-03-01T06:43:56.382Z,42.57
2019-03-01T06:46:28.518Z,42.56
2019-03-01T06:49:00.669Z,42.51
2019-03-01T06:51:32.805Z,42.49
2019-03-01T06:54:04.939Z,42.58
2019-03-01T06:56:37.099Z,42.68
2019-03-01T06:59:09.242Z,42.57
2019-03-01T07:01:41.386Z,42.50
2019-03-01T07:04:13.537Z,42.36
2019-03-01T07:06:45.666Z,42.24
2019-03-01T07:09:17.805Z,42.15
2019-03-01T07:11:49.932Z,42.06
2019-03-01T07:14:22.075Z,41.92
2019-03-01T07:16:54.209Z,41.88
2019-03-01T07:19:26.341Z,41.71
2019-03-01T07:21:58.480Z,41.70
2019-03-01T07:24:30.621Z,41.62
2019-03-01T07:27:02.746Z,41.33
2019-03-01T07:29:34.897Z,41.23
2019-03-01T07:32:07.033Z,41.21
2019-03-01T07:34:39.240Z,41.16
2019-03-01T07:37:11.389Z,41.07
2019-03-01T07:39:43.521Z,41.08
2019-03-01T07:42:15.654Z,41.20
2019-03-01T07:44:47.795Z,41.22
2019-03-01T07:47:19.931Z,41.24
2019-03-01T07:49:52.072Z,41.38
2019-03-01T07:52:24.220Z,41.19
2019-03-01T07:54:56.358Z,41.08
2019-03-01T07:57:28.495Z,40.93
2019-03-01T08:00:01.613Z,40.87
2019-03-01T08:02:35.887Z,40.77
2019-03-01T08:05:09.487Z,40.65
2019-03-01T08:07:41.613Z,40.58
2019-03-01T08:10:20.859Z,40.50
2019-03-01T08:12:47.874Z,40.44
2019-03-01T08:15:20.125Z,40.42
2019-03-01T08:17:52.257Z,40.31
2019-03-01T08:20:24.390Z,40.35
2019-03-01T08:22:59.465Z,40.31
2019-03-01T08:25:30.362Z,40.46
2019-03-01T08:28:02.515Z,40.51
2019-03-01T08:30:35.803Z,40.53
2019-03-01T08:33:08.019Z,40.62
2019-03-01T08:35:40.097Z,40.80
2019-03-01T08:38:12.222Z,40.95
2019-03-01T08:40:46.599Z,41.10
2019-03-01T08:43:18.203Z,41.25
2019-03-01T08:45:50.344Z,41.42
2019-03-01T08:48:22.478Z,41.57
2019-03-01T08:50:54.604Z,41.76
2019-03-01T08:53:26.756Z,41.98
2019-03-01T08:55:58.890Z,42.20
2019-03-01T08:58:31.019Z,42.34
2019-03-01T09:01:06.947Z,42.51
2019-03-01T09:03:37.058Z,42.69
2019-03-01T09:06:09.221Z,42.85
2019-03-01T09:08:42.996Z,43.05
2019-03-01T09:11:15.184Z,43.11
2019-03-01T09:13:47.316Z,43.24
2019-03-01T09:16:19.440Z,43.32
2019-03-01T09:18:51.932Z,43.45
2019-03-01T09:21:24.066Z,43.54
2019-03-01T09:23:56.199Z,43.67
2019-03-01T09:26:28.349Z,43.74
2019-03-01T09:29:00.478Z,43.85
2019-03-01T09:31:32.604Z,43.87
2019-03-01T09:34:06.191Z,43.91
2019-03-01T09:36:38.557Z,43.98
2019-03-01T09:39:10.708Z,44.05
2019-03-01T09:41:42.831Z,44.08
2019-03-01T09:44:14.954Z,44.16
2019-03-01T09:46:47.104Z,44.23
2019-03-01T09:49:21.413Z,44.24
2019-03-01T09:51:53.075Z,44.28
2019-03-01T09:54:25.212Z,44.33
2019-03-01T09:56:57.329Z,44.33
2019-03-01T09:59:30.530Z,44.40
2019-03-01T10:02:02.664Z,44.42
2019-03-01T10:04:34.794Z,44.48
2019-03-01T10:07:06.928Z,44.45
2019-03-01T10:09:39.125Z,44.53
2019-03-01T10:12:11.251Z,44.54
2019-03-01T10:14:43.398Z,44.59
2019-03-01T10:17:15.529Z,44.63
2019-03-01T10:19:47.657Z,44.69
2019-03-01T10:22:19.809Z,44.65
2019-03-01T10:24:51.948Z,44.68
2019-03-01T10:27:24.088Z,44.69
2019-03-01T10:29:56.230Z,44.71
2019-03-01T10:32:28.364Z,44.68
2019-03-01T10:35:00.492Z,44.73
2019-03-01T10:37:32.624Z,44.73
2019-03-01T10:40:04.750Z,44.80
2019-03-01T10:42:36.881Z,44.74
2019-03-01T10:45:09.010Z,44.81
2019-03-01T10:47:41.143Z,44.79
2019-03-01T10:50:13.265Z,44.86
2019-03-01T10:52:45.415Z,44.81
2019-03-01T10:55:17.575Z,44.86
2019-03-01T10:57:49.696Z,44.79
2019-03-01T11:00:21.858Z,44.74
2019-03-01T11:02:53.987Z,44.72
2019-03-01T11:05:26.116Z,44.76
2019-03-01T11:07:58.270Z,44.70
2019-03-01T11:10:30.387Z,44.66
2019-03-01T11:13:02.515Z,44.75
2019-03-01T11:15:34.675Z,44.77
2019-03-01T11:18:06.797Z,44.77
2019-03-01T11:20:38.947Z,44.73
2019-03-01T11:23:11.076Z,44.73
2019-03-01T11:25:43.203Z,44.77
2019-03-01T11:28:15.339Z,44.77
2019-03-01T11:30:47.473Z,44.67
2019-03-01T11:33:19.591Z,44.67
2019-03-01T11:35:52.040Z,44.63
2019-03-01T11:38:24.148Z,44.63
2019-03-01T11:40:56.278Z,44.57
2019-03-01T11:43:28.425Z,44.54
2019-03-01T11:46:00.811Z,44.49
2019-03-01T11:48:33.059Z,44.44
2019-03-01T11:51:05.225Z,44.47
2019-03-01T11:53:37.353Z,44.49
2019-03-01T11:56:09.475Z,44.40
2019-03-01T11:58:41.617Z,44.43
2019-03-01T12:01:17.227Z,44.41
2019-03-01T12:03:47.880Z,44.36
2019-03-01T12:06:20.006Z,44.44
2019-03-01T12:08:52.146Z,44.43
2019-03-01T12:11:24.273Z,44.38
2019-03-01T12:13:56.401Z,44.26
2019-03-01T12:16:28.542Z,44.23
2019-03-01T12:19:00.675Z,44.32
2019-03-01T12:21:32.793Z,44.21
2019-03-01T12:24:04.923Z,44.19
2019-03-01T12:26:37.043Z,44.17
2019-03-01T12:29:09.170Z,44.24
2019-03-01T12:31:41.308Z,44.21
2019-03-01T12:34:13.427Z,44.14
2019-03-01T12:36:45.551Z,44.18
2019-03-01T12:39:17.761Z,43.98
2019-03-01T12:41:50.175Z,43.86
2019-03-01T12:44:22.303Z,43.73
2019-03-01T12:46:54.456Z,43.77
2019-03-01T12:49:26.587Z,43.75
2019-03-01T12:51:58.730Z,43.75
2019-03-01T12:54:30.860Z,43.69
2019-03-01T12:57:02.981Z,43.69
2019-03-01T12:59:35.110Z,43.64
2019-03-01T13:02:07.247Z,43.59
2019-03-01T13:04:39.375Z,43.58
2019-03-01T13:07:13.238Z,43.54
2019-03-01T13:09:45.340Z,43.56
2019-03-01T13:12:17.521Z,43.49
2019-03-01T13:14:49.658Z,43.46
2019-03-01T13:17:21.799Z,43.51
2019-03-01T13:19:53.928Z,43.46
2019-03-01T13:22:27.931Z,43.33
2019-03-01T13:24:59.903Z,43.32
2019-03-01T13:27:32.027Z,43.45
2019-03-01T13:30:04.176Z,43.11
2019-03-01T13:32:36.295Z,42.91
2019-03-01T13:35:10.210Z,43.07
2019-03-01T13:37:42.259Z,43.27
2019-03-01T13:40:14.393Z,42.81
2019-03-01T13:42:47.260Z,42.35
2019-03-01T13:45:20.353Z,42.03
2019-03-01T13:47:52.516Z,41.81
2019-03-01T13:50:24.651Z,41.57
2019-03-01T13:52:56.804Z,41.37
2019-03-01T13:55:28.926Z,41.07
2019-03-01T13:58:01.060Z,40.85
2019-03-01T14:00:33.205Z,40.58
2019-03-01T14:03:05.342Z,40.49
2019-03-01T14:05:37.472Z,40.24
2019-03-01T14:08:09.635Z,40.02
2019-03-01T14:10:43.146Z,39.88
2019-03-01T14:13:15.751Z,39.69
2019-03-01T14:15:47.896Z,39.56
2019-03-01T14:18:20.023Z,39.49
2019-03-01T14:20:54.451Z,39.31
2019-03-01T14:23:26.041Z,39.18
2019-03-01T14:25:58.430Z,39.11
2019-03-01T14:28:30.552Z,38.60
2019-03-01T14:31:04.072Z,37.57
2019-03-01T14:33:36.515Z,36.57
2019-03-01T14:36:08.666Z,36.06
2019-03-01T14:38:40.797Z,35.81
2019-03-01T14:41:12.931Z,36.62
2019-03-01T14:43:45.069Z,36.98
2019-03-01T14:46:17.596Z,37.23
2019-03-01T14:48:51.039Z,37.43
2019-03-01T14:51:23.162Z,37.63
2019-03-01T14:53:55.284Z,37.69
2019-03-01T14:56:31.167Z,37.71
2019-03-01T14:59:02.339Z,37.70
2019-03-01T15:01:34.471Z,37.65
2019-03-01T15:04:06.610Z,37.65
2019-03-01T15:06:38.735Z,37.56
2019-03-01T15:09:10.891Z,37.54
2019-03-01T15:11:44.340Z,37.47
2019-03-01T15:14:17.034Z,37.41
2019-03-01T15:16:49.163Z,37.49
2019-03-01T15:19:21.292Z,37.34
2019-03-01T15:21:53.435Z,37.29
2019-03-01T15:24:25.574Z,37.26
2019-03-01T15:27:00.297Z,37.18
2019-03-01T15:29:32.236Z,37.07
2019-03-01T15:32:05.119Z,37.09
2019-03-01T15:34:37.318Z,37.16
2019-03-01T15:37:09.444Z,37.25
2019-03-01T15:39:41.576Z,37.46
2019-03-01T15:42:14.243Z,37.61
2019-03-01T15:44:47.538Z,37.51
2019-03-01T15:47:19.681Z,37.57
2019-03-01T15:49:52.479Z,37.57
2019-03-01T15:52:24.710Z,37.50
2019-03-01T15:54:56.857Z,37.53
2019-03-01T15:57:28.990Z,37.54
2019-03-01T16:00:01.116Z,37.55
2019-03-01T16:02:34.873Z,37.47
2019-03-01T16:05:07.011Z,37.47
2019-03-01T16:07:39.145Z,37.59
2019-03-01T16:10:11.291Z,37.28
2019-03-01T16:12:43.411Z,37.29
2019-03-01T16:15:15.543Z,37.42
2019-03-01T16:17:47.800Z,37.55
2019-03-01T16:20:19.883Z,37.57
2019-03-01T16:22:54.230Z,37.89
2019-03-01T16:25:25.848Z,37.84
2019-03-01T16:27:57.974Z,37.88
2019-03-01T16:30:30.100Z,37.91
2019-03-01T16:33:02.263Z,38.11
2019-03-01T16:35:34.393Z,38.19
2019-03-01T16:38:07.614Z,37.88
2019-03-01T16:40:39.754Z,37.88
2019-03-01T16:43:11.884Z,37.77
2019-03-01T16:45:44.021Z,37.67
2019-03-01T16:48:16.861Z,37.61
2019-03-01T16:50:49.783Z,37.69
2019-03-01T16:53:21.910Z,37.69
2019-03-01T16:55:54.040Z,38.03
2019-03-01T16:58:28.276Z,38.37
2019-03-01T17:01:00.014Z,38.33
2019-03-01T17:03:32.151Z,38.35
2019-03-01T17:06:04.276Z,38.33
2019-03-01T17:08:39.497Z,38.57
2019-03-01T17:11:10.248Z,38.03
2019-03-01T17:13:42.447Z,38.01
2019-03-01T17:16:14.576Z,37.89
2019-03-01T17:18:47.879Z,37.87
2019-03-01T17:21:20.720Z,38.17
2019-03-01T17:23:54.655Z,38.34
2019-03-01T17:26:29.975Z,38.47
2019-03-01T17:29:03.160Z,38.57
2019-03-01T17:31:34.540Z,38.67
2019-03-01T17:34:07.657Z,38.77
2019-03-01T17:36:39.778Z,38.67
2019-03-01T17:39:11.902Z,38.72
2019-03-01T17:41:45.603Z,38.72
2019-03-01T17:44:17.866Z,38.52
2019-03-01T17:46:50.029Z,38.30
2019-03-01T17:49:22.147Z,38.20
2019-03-01T17:51:56.559Z,38.20
2019-03-01T17:54:28.107Z,38.25
2019-03-01T17:57:00.229Z,38.57
2019-03-01T17:59:32.346Z,38.67
2019-03-01T18:02:04.485Z,38.74
2019-03-01T18:04:36.891Z,38.83
2019-03-01T18:07:09.821Z,38.90
2019-03-01T18:09:41.941Z,38.93
2019-03-01T18:12:14.088Z,38.97
2019-03-01T18:14:46.214Z,38.76
2019-03-01T18:17:18.336Z,38.66
2019-03-01T18:19:50.482Z,38.66
2019-03-01T18:22:22.990Z,38.79
2019-03-01T18:24:56.441Z,38.85
2019-03-01T18:27:28.570Z,39.03
2019-03-01T18:30:00.693Z,39.04
2019-03-01T18:32:33.097Z,39.15
2019-03-01T18:35:07.964Z,39.02
2019-03-01T18:37:39.044Z,38.92
2019-03-01T18:40:13.409Z,38.97
2019-03-01T18:42:45.180Z,39.01
2019-03-01T18:45:17.309Z,39.07
2019-03-01T18:47:49.456Z,39.27
2019-03-01T18:50:22.635Z,39.35
2019-03-01T18:52:54.756Z,39.39
2019-03-01T18:55:26.879Z,39.45
2019-03-01T18:57:59.009Z,39.45
2019-03-01T19:00:32.519Z,39.48
2019-03-01T19:03:05.479Z,39.46
2019-03-01T19:05:40.106Z,39.37
2019-03-01T19:08:11.685Z,39.50
2019-03-01T19:10:43.817Z,39.14
2019-03-01T19:13:15.948Z,39.08
2019-03-01T19:15:53.569Z,39.06
2019-03-01T19:18:21.915Z,39.32
2019-03-01T19:20:54.050Z,39.47
2019-03-01T19:23:29.297Z,39.53
2019-03-01T19:26:01.771Z,39.64
2019-03-01T19:28:34.058Z,39.79
2019-03-01T19:31:06.201Z,39.74
2019-03-01T19:33:41.430Z,39.66
2019-03-01T19:36:13.128Z,39.58
2019-03-01T19:38:46.462Z,39.16
2019-03-01T19:41:20.037Z,39.05
2019-03-01T19:43:57.471Z,39.07
2019-03-01T19:46:26.648Z,39.09
2019-03-01T19:48:58.746Z,39.29
2019-03-01T19:51:33.714Z,39.37
2019-03-01T19:54:05.782Z,39.49
2019-03-01T19:56:37.914Z,39.37
2019-03-01T19:59:10.050Z,39.33
2019-03-01T20:01:42.197Z,39.33
2019-03-01T20:04:14.326Z,39.36
2019-03-01T20:06:46.456Z,39.47
2019-03-01T20:09:18.587Z,39.61
2019-03-01T20:11:50.724Z,39.77
2019-03-01T20:14:22.856Z,39.84
2019-03-01T20:16:58.200Z,39.95
2019-03-01T20:19:28.831Z,40.12
2019-03-01T20:22:00.966Z,40.09
2019-03-01T20:24:33.088Z,39.96
2019-03-01T20:27:05.301Z,39.76
2019-03-01T20:29:37.433Z,39.72
2019-03-01T20:32:12.516Z,39.73
2019-03-01T20:34:43.401Z,39.86
2019-03-01T20:37:15.534Z,40.07
2019-03-01T20:39:50.965Z,40.20
2019-03-01T20:42:24.395Z,40.48
2019-03-01T20:44:55.324Z,40.27
2019-03-01T20:47:27.463Z,40.16
2019-03-01T20:49:59.587Z,40.12
2019-03-01T20:52:34.862Z,40.25
2019-03-01T20:55:05.561Z,40.38
2019-03-01T20:57:37.694Z,40.53
2019-03-01T21:00:09.821Z,40.50
2019-03-01T21:02:46.859Z,40.51
2019-03-01T21:05:17.417Z,40.70
2019-03-01T21:07:53.887Z,40.73
2019-03-01T21:10:23.392Z,40.78
2019-03-01T21:12:55.526Z,40.77
2019-03-01T21:15:27.655Z,40.81
2019-03-01T21:17:59.788Z,40.87
2019-03-01T21:20:31.935Z,40.77
2019-03-01T21:23:04.060Z,40.66
2019-03-01T21:25:39.744Z,40.49
2019-03-01T21:28:10.038Z,40.40
2019-03-01T21:30:42.168Z,40.44
2019-03-01T21:33:14.297Z,40.46
2019-03-01T21:35:50.795Z,40.62
2019-03-01T21:38:21.439Z,40.56
2019-03-01T21:40:53.583Z,40.42
2019-03-01T21:43:26.688Z,40.41
2019-03-01T21:45:59.816Z,40.39
2019-03-01T21:48:32.994Z,40.43
2019-03-01T21:51:05.141Z,40.51
2019-03-01T21:53:39.828Z,40.56
2019-03-01T21:56:11.121Z,40.62
2019-03-01T21:58:43.256Z,40.73
2019-03-01T22:01:15.376Z,40.74
2019-03-01T22:03:47.516Z,40.76
2019-03-01T22:06:20.599Z,40.82
2019-03-01T22:08:53.479Z,40.87
2019-03-01T22:11:25.611Z,40.94
2019-03-01T22:13:57.754Z,41.03
2019-03-01T22:16:32.716Z,41.08
2019-03-01T22:19:03.718Z,41.13
2019-03-01T22:21:35.849Z,41.22
2019-03-01T22:24:07.984Z,41.26
2019-03-01T22:26:40.108Z,41.35
2019-03-01T22:29:12.994Z,41.42
2019-03-01T22:31:45.163Z,41.47
2019-03-01T22:34:17.297Z,41.48
2019-03-01T22:36:52.894Z,41.58
2019-03-01T22:39:23.573Z,41.62
2019-03-01T22:41:55.722Z,41.78
2019-03-01T22:44:28.084Z,41.77
2019-03-01T22:47:00.907Z,41.80
2019-03-01T22:49:33.663Z,41.84
2019-03-01T22:52:05.811Z,41.88
2019-03-01T22:54:37.935Z,41.93
2019-03-01T22:57:11.041Z,41.97
2019-03-01T22:59:47.371Z,41.99
2019-03-01T23:02:20.043Z,42.05
2019-03-01T23:04:51.926Z,42.07
2019-03-01T23:07:26.446Z,42.09
2019-03-01T23:09:57.902Z,42.16
2019-03-01T23:12:30.026Z,42.19
2019-03-01T23:15:02.824Z,42.23
2019-03-01T23:17:37.350Z,42.25
2019-03-01T23:20:09.481Z,42.23
2019-03-01T23:22:42.725Z,42.28
2019-03-01T23:25:15.458Z,42.32
2019-03-01T23:27:47.605Z,42.37
2019-03-01T23:30:19.732Z,42.40
2019-03-01T23:32:52.361Z,42.44
2019-03-01T23:35:25.698Z,42.50
2019-03-01T23:37:58.890Z,42.51
2019-03-01T23:40:32.719Z,42.54
2019-03-01T23:43:04.863Z,42.56
2019-03-01T23:45:36.990Z,42.62
2019-03-01T23:48:10.611Z,42.61
2019-03-01T23:50:42.942Z,42.68
2019-03-01T23:53:15.064Z,42.68
2019-03-01T23:55:47.488Z,42.67
2019-03-01T23:58:19.642Z,42.74
